Weather observations for the past three days for
Jackson County Airport - Reynolds Field
Metric (Imperial)
Date Time (edt) Wind (kph) Vis. (km) Weather Sky Cond. Temperature (ºC) Relative Humidity Wind Chill (°C) Heat Index (°C) Pressure Precipitation (cm)
Air Dwpt 6 hour altimeter (cm) sea level (mb) 1 hr 3 hr 6 hr
Max. Min.
02 23:56 SW 11 16.09 Fair CLR 26.1 23.3 85% 28 76.05 1013.0
02 22:56 SW 11 16.09 Fair CLR 25.6 23.3 87% 27 76.02 1012.5
02 21:56 SW 6 16.09 Fair CLR 24.4 22.8 91% 24 76.05 1013.2
02 20:56 SW 6 16.09 Fair CLR 25.6 22.8 85% 27 76.05 1013.0
02 19:56 SW 6 16.09 Fair CLR 28.3 22.8 32.8 28.3 72% 32 76.02 1012.6
02 18:56 SW 15 16.09 Fair CLR 31.1 21.7 57% 34 76 1012.4
02 17:56 SW 15 G 33 16.09 Fair CLR 32.2 21.7 54% 36 76.02 1012.5
02 16:56 SW 19 16.09 Fair CLR 31.7 22.2 57% 36 76.02 1012.8
02 15:56 SW 17 G 31 16.09 Fair CLR 32.2 22.2 56% 36 76.12 1013.8
02 14:56 S 20 16.09 Fair CLR 32.2 22.2 56% 36 76.15 1014.1
02 13:56 SW 13 16.09 Fair CLR 31.1 22.2 31.7 23.3 59% 35 76.15 1014.6
02 12:56 SW 19 16.09 Fair CLR 31.1 22.8 61% 35 76.23 1015.3
02 11:56 SW 11 16.09 Fair CLR 30 22.2 63% 33 76.2 1015.1
02 10:56 SW 17 16.09 A Few Clouds FEW080 29.4 22.8 68% 33 76.23 1015.3
02 09:56 SW 11 16.09 Fair CLR 27.2 22.8 77% 30 76.2 1015.1
02 08:56 SW 9 16.09 Fair CLR 25.6 22.8 85% 27 76.23 1015.6
02 07:56 Calm 16.09 Fair CLR 23.3 22.2 25 21.7 94% 76.2 1015.3
02 06:56 Calm 9.66 Fog/Mist CLR 21.7 21.7 100% 76.23 1015.4
02 05:56 SW 7 12.87 Fair CLR 22.8 22.2 96% 76.2 1015.0
02 04:56 SW 7 14.48 Fair CLR 22.8 22.2 96% 76.15 1014.6
02 03:56 SW 7 16.09 A Few Clouds FEW120 23.9 23.3 96% 23 76.15 1014.5
02 02:56 SW 17 16.09 Fair CLR 25 23.3 90% 26 76.12 1014.1
02 01:56 SW 7 14.48 Fair CLR 22.2 22.2 25 21.7 100% 76.15 1014.4
02 00:56 Calm 14.48 A Few Clouds FEW120 21.7 21.7 100% 76.17 1014.9
01 23:56 SE 7 16.09 Mostly Cloudy BKN120 23.3 22.2 94% 76.15 1014.6
01 22:56 Calm 16.09 Fair CLR 22.8 21.7 94% 76.17 1014.7
01 21:56 S 6 16.09 Fair CLR 23.9 21.7 88% 24 76.15 1014.5
01 20:56 S 7 16.09 Fair CLR 24.4 21.1 82% 25 76.15 1014.7
01 19:56 S 7 16.09 A Few Clouds FEW110 25 21.7 31.1 25 82% 26 76.15 1014.7
01 18:56 SW 7 16.09 Fair CLR 26.7 22.2 76% 29 76.23 1015.6
01 17:56 W 19 16.09 Fair CLR 28.3 22.8 72% 32 76.2 1015.1
01 16:56 SW 17 16.09 Fair CLR 28.9 23.3 72% 33 76.12 1014.3
01 15:56 SW 20 G 35 16.09 A Few Clouds FEW032 29.4 23.9 72% 34 76.15 1014.6
01 14:56 S 11 16.09 Fair CLR 30.6 24.4 70% 36 76.17 1014.9
01 13:56 SW 17 G 28 16.09 Fair CLR 30.6 23.9 30.6 21.7 67% 36 76.17 1014.7
01 12:56 S 9 16.09 Fair CLR 29.4 24.4 75% 35 76.17 1014.7
01 11:56 SW 11 16.09 Fair CLR 28.3 22.8 72% 32 76.2 1015.0
01 10:56 SW 7 16.09 Fair CLR 27.2 22.2 74% 30 76.2 1015.1
01 09:56 SW 9 16.09 Fair CLR 25 21.1 79% 26 76.23 1015.4
01 08:56 SW 11 16.09 Fair CLR 23.3 20.6 85% 76.2 1015.4
01 07:56 SW 6 16.09 Fair CLR 21.7 20 22.8 20 90% 76.2 1015.2
01 06:56 SW 6 16.09 Fair CLR 20 19.4 96% 76.17 1014.9
01 05:56 Calm 16.09 Fair CLR 20.6 20 96% 76.15 1014.7
01 04:56 Calm 9.66 Fog/Mist CLR 20 20 100% 76.15 1014.6
01 03:56 S 6 11.27 Fair CLR 20 20 100% 76.12 1014.3
01 02:56 Calm 16.09 Fair CLR 21.7 20.6 94% 76.12 1014.2
01 01:56 SW 11 16.09 Fair CLR 22.8 21.1 23.9 22.8 90% 76.12 1014.3
01 00:56 SW 9 16.09 Fair CLR 23.3 21.1 88% 76.15 1014.4
31 23:56 SW 7 16.09 Fair CLR 23.3 21.7 91% 76.12 1014.3
31 22:56 SW 7 16.09 Fair CLR 23.3 21.7 91% 76.17 1014.7
31 21:56 S 11 16.09 Fair CLR 23.3 21.1 88% 76.15 1014.7
31 20:56 S 13 16.09 Fair CLR 23.3 20.6 85% 76.12 1014.2
31 18:56 SE 9 16.09 A Few Clouds FEW110 22.8 20.6 87% 76.15 1014.6
31 17:56 S 17 6.44 Rain Fog/Mist FEW049 SCT060 OVC110 22.2 20 87% 76.17 1015.0 0.51
31 16:56 Calm 4.83 Thunderstorm in Vicinity Rain Fog/Mist SCT050 BKN070 BKN090 22.8 21.1 90% 76.3 1016.6 0.23 0.23
31 15:56 SW 7 16.09 Thunderstorm in Vicinity BKN095 BKN110 26.1 19.4 67% 27 76.25 1016.0
31 14:56 S 24 G 35 16.09 Fair CLR 28.3 18.9 57% 30 76.25 1015.7
31 13:56 S 15 16.09 A Few Clouds FEW120 26.7 20 27.2 21.7 67% 28 76.28 1016.2 0.03
31 12:56 S 15 16.09 Fair CLR 25.6 19.4 69% 27 76.3 1016.8
31 11:56 W 9 16.09 Mostly Cloudy BKN090 25.6 20 71% 27 76.38 1017.7
31 10:56 S 11 16.09 Light Rain BKN090 23.9 20 79% 24 76.35 1017.3 0.03
31 09:56 SW 6 16.09 Partly Cloudy SCT120 22.8 19.4 81% 76.33 1017.2 0.03
31 08:56 S 7 16.09 Overcast OVC090 22.8 19.4 81% 76.3 1016.6
31 07:56 Calm 16.09 Mostly Cloudy BKN100 21.7 18.9 22.8 21.1 84% 76.28 1016.4
31 06:56 S 7 16.09 Mostly Cloudy BKN110 21.1 18.3 84% 76.28 1016.3
31 05:56 S 9 16.09 Mostly Cloudy BKN110 21.7 18.3 81% 76.28 1016.3
31 04:56 S 9 16.09 Mostly Cloudy BKN100 21.1 18.9 87% 76.28 1016.2
31 03:56 S 9 16.09 Partly Cloudy SCT120 21.1 18.9 87% 76.25 1016.0
31 02:56 S 11 16.09 Partly Cloudy SCT080 22.2 18.9 82% 76.3 1016.7
31 01:56 S 13 16.09 Overcast FEW080 SCT095 OVC120 22.2 18.3 23.3 20.6 79% 76.33 1017.0
31 00:56 S 9 16.09 Overcast BKN090 OVC110 21.1 18.3 84% 76.3 1016.9
Date Time (edt) Wind (kph) Vis. (km) Weather Sky Cond. Air Dwpt Max. Min. Relative Humidity Wind Chill (°C) Heat Index (°C) altimeter (cm) sea level (mb) 1 hr 3 hr 6 hr
6 hour
Temperature (ºC) Pressure Precipitation (cm)